Time;durP1;ratioP1;P1;durP2;ratioP2;P2;SDS_P1;SDS_P2;PMS_P1;PMS_P2;Temp;Humidity;BMP_temperature;BMP_pressure;BME280_temperature;BME280_humidity;BME280_pressure;Samples;Min_cycle;Max_cycle;Signal;HPM_P1;HPM_P2
2022/07/16 00:02:54;;;;;;;2.80;1.35;;;;;;;22.75;42.85;102062.28;5071225;28;20542;-72
2022/07/16 00:05:20;;;;;;;4.97;1.50;;;;;;;23.26;41.91;102069.28;5071924;28;20032;-72
2022/07/16 00:07:45;;;;;;;2.13;0.93;;;;;;;23.28;42.06;102070.66;5071692;28;20475;-71
2022/07/16 00:10:11;;;;;;;2.47;1.02;;;;;;;22.36;43.93;102062.03;5080211;28;20051;-72
2022/07/16 00:12:36;;;;;;;3.35;1.98;;;;;;;22.51;43.84;102062.00;5071361;28;20043;-71
2022/07/16 00:15:03;;;;;;;3.35;1.60;;;;;;;23.08;42.76;102061.66;5071839;28;20039;-73
2022/07/16 00:17:28;;;;;;;2.97;1.40;;;;;;;22.77;43.48;102055.44;5080723;28;20044;-72
2022/07/16 00:19:54;;;;;;;4.55;1.20;;;;;;;22.87;42.87;102057.34;5092416;28;20027;-72
2022/07/16 00:22:19;;;;;;;2.35;1.23;;;;;;;22.66;43.28;102045.63;5092028;28;20487;-72
2022/07/16 00:24:45;;;;;;;1.83;1.15;;;;;;;22.58;43.60;102062.59;5091657;28;20492;-72
2022/07/16 00:27:10;;;;;;;3.70;1.10;;;;;;;22.66;43.30;102062.06;5091473;28;20032;-72
2022/07/16 00:29:35;;;;;;;3.47;1.42;;;;;;;22.41;44.21;102057.38;5091398;28;20091;-73
2022/07/16 00:32:01;;;;;;;4.28;1.20;;;;;;;23.04;42.95;102063.31;5091507;28;20082;-72
2022/07/16 00:34:26;;;;;;;4.97;2.08;;;;;;;22.68;43.29;102059.84;5091418;28;20078;-71
2022/07/16 00:36:52;;;;;;;2.50;1.25;;;;;;;22.86;42.80;102066.69;5091901;28;20604;-74
2022/07/16 00:39:18;;;;;;;8.00;1.88;;;;;;;22.97;42.70;102055.41;5091691;28;20030;-73
2022/07/16 00:41:46;;;;;;;1.13;1.08;;;;;;;22.63;43.47;102057.09;5091247;28;20048;-71
2022/07/16 00:44:15;;;;;;;2.95;1.33;;;;;;;22.95;43.05;102054.88;5073610;28;20059;-73
2022/07/16 00:46:41;;;;;;;5.10;1.58;;;;;;;22.67;43.54;102047.25;5091001;28;20040;-73
2022/07/16 00:49:08;;;;;;;3.47;1.50;;;;;;;22.28;44.46;102048.88;5090991;28;20036;-73
2022/07/16 00:51:35;;;;;;;3.47;1.23;;;;;;;23.04;42.71;102053.19;5091029;28;20051;-72
2022/07/16 00:54:02;;;;;;;5.28;1.60;;;;;;;22.68;43.18;102048.91;5077184;28;20091;-72
2022/07/16 00:56:27;;;;;;;3.92;1.27;;;;;;;22.90;43.54;102054.06;5070249;28;20455;-74
2022/07/16 00:58:54;;;;;;;4.82;1.73;;;;;;;22.78;43.60;102057.06;5091111;28;20039;-76
2022/07/16 01:01:21;;;;;;;5.53;1.20;;;;;;;23.18;42.85;102065.22;5088925;28;20047;-75
2022/07/16 01:03:46;;;;;;;2.35;1.45;;;;;;;23.53;42.01;102059.63;5070470;28;20044;-74
2022/07/16 01:06:14;;;;;;;7.88;1.70;;;;;;;23.13;43.31;102068.00;5070376;28;20044;-73
2022/07/16 01:08:42;;;;;;;4.13;1.40;;;;;;;23.02;43.88;102060.88;5070710;28;20524;-74
2022/07/16 01:11:10;;;;;;;4.82;1.55;;;;;;;22.96;43.98;102069.41;5071342;28;20107;-73
2022/07/16 01:13:38;;;;;;;2.92;1.38;;;;;;;23.35;43.06;102062.19;5070648;28;20033;-73
2022/07/16 01:16:04;;;;;;;3.45;2.00;;;;;;;23.19;43.90;102060.56;5070419;28;20110;-74
2022/07/16 01:18:30;;;;;;;4.20;1.75;;;;;;;23.21;43.45;102058.34;5070118;28;20044;-73
2022/07/16 01:20:56;;;;;;;5.47;2.47;;;;;;;23.29;43.65;102053.09;5070558;28;20094;-75
2022/07/16 01:23:23;;;;;;;7.70;1.85;;;;;;;23.02;44.01;102049.91;5070399;28;20380;-74
2022/07/16 01:25:49;;;;;;;2.20;1.45;;;;;;;23.20;43.76;102043.00;5070787;28;20036;-73
2022/07/16 01:28:15;;;;;;;4.18;1.63;;;;;;;23.00;44.67;102043.03;5072592;28;20078;-72
2022/07/16 01:30:41;;;;;;;5.30;1.85;;;;;;;23.01;44.66;102040.06;5089701;28;20055;-74
2022/07/16 01:33:27;;;;;;;4.65;1.67;;;;;;;22.70;45.81;102035.75;5090040;28;20569;-72
2022/07/16 01:35:59;;;;;;;3.65;1.25;;;;;;;23.12;45.19;102040.81;5090383;28;20036;-73
2022/07/16 01:38:25;;;;;;;2.17;1.50;;;;;;;22.75;45.84;102034.88;5089966;28;20039;-73
2022/07/16 01:40:51;;;;;;;4.03;1.83;;;;;;;23.31;44.59;102039.16;5090767;28;20028;-74
2022/07/16 01:43:20;;;;;;;11.02;1.92;;;;;;;23.63;44.27;102038.69;5089973;28;20919;-73
2022/07/16 01:45:46;;;;;;;2.83;1.45;;;;;;;23.34;45.10;102033.09;5089907;28;20496;-74
2022/07/16 01:48:13;;;;;;;3.53;1.63;;;;;;;22.54;47.44;102029.41;5089962;28;20036;-73
2022/07/16 01:50:42;;;;;;;3.95;1.83;;;;;;;22.75;47.35;102024.75;5089664;28;20101;-72
2022/07/16 01:53:09;;;;;;;7.15;2.22;;;;;;;22.79;47.28;102042.28;5083530;28;20029;-73
2022/07/16 01:55:35;;;;;;;7.70;1.88;;;;;;;22.88;47.11;102040.63;5069817;28;20112;-72
2022/07/16 01:58:02;;;;;;;6.38;2.75;;;;;;;22.84;47.29;102044.22;5069923;28;20028;-73
2022/07/16 02:00:28;;;;;;;5.75;2.38;;;;;;;23.31;46.60;102053.66;5069547;28;20448;-72
2022/07/16 02:02:53;;;;;;;7.22;1.73;;;;;;;23.08;47.48;102051.53;5069501;28;20040;-72
2022/07/16 02:05:19;;;;;;;5.90;1.75;;;;;;;22.85;47.96;102046.66;5070338;28;20025;-72
2022/07/16 02:07:44;;;;;;;6.22;2.47;;;;;;;22.94;47.38;102055.16;5051424;28;20047;-72
2022/07/16 02:10:10;;;;;;;5.78;2.25;;;;;;;23.23;47.89;102048.72;5069816;28;20404;-73
2022/07/16 02:12:35;;;;;;;5.45;2.30;;;;;;;23.67;46.63;102057.06;5069538;28;20112;-73
2022/07/16 02:15:01;;;;;;;13.55;2.65;;;;;;;22.75;50.30;102073.25;5069492;28;20052;-74
2022/07/16 02:17:26;;;;;;;6.28;2.90;;;;;;;22.63;51.65;102070.81;5069287;28;20048;-73
2022/07/16 02:19:52;;;;;;;4.15;3.15;;;;;;;22.13;54.72;102077.06;5070673;28;20016;-72
2022/07/16 02:22:17;;;;;;;3.63;3.20;;;;;;;21.74;57.26;102073.13;5070449;28;20047;-74
2022/07/16 02:24:44;;;;;;;8.73;3.85;;;;;;;21.31;59.58;102081.69;5069241;28;20079;-71
2022/07/16 02:27:09;;;;;;;5.30;4.03;;;;;;;21.65;59.60;102082.94;5069354;28;20040;-71
2022/07/16 02:29:35;;;;;;;11.82;4.40;;;;;;;21.83;58.80;102074.28;5082759;28;20125;-71
2022/07/16 02:32:00;;;;;;;6.85;5.05;;;;;;;21.95;58.76;102083.06;5089979;28;20040;-72
2022/07/16 02:34:25;;;;;;;8.25;4.78;;;;;;;21.74;59.86;102079.41;5089347;28;20138;-72
2022/07/16 02:36:51;;;;;;;9.18;4.93;;;;;;;22.10;59.27;102085.84;5090193;28;20094;-71
2022/07/16 02:39:16;;;;;;;7.25;4.63;;;;;;;21.86;60.70;102086.63;5089395;28;20028;-71
2022/07/16 02:41:42;;;;;;;9.07;4.53;;;;;;;21.68;61.61;102091.44;5091310;28;20077;-72
2022/07/16 02:44:07;;;;;;;14.10;4.68;;;;;;;21.69;62.29;102090.34;5094192;28;20073;-72
2022/07/16 02:46:33;;;;;;;7.82;4.85;;;;;;;22.12;60.38;102086.38;5074662;28;20043;-74
2022/07/16 02:48:58;;;;;;;9.07;5.13;;;;;;;21.19;63.14;102098.31;5090503;28;20472;-72
2022/07/16 02:51:23;;;;;;;5.85;4.80;;;;;;;21.30;63.13;102094.56;5073179;28;20464;-73
2022/07/16 02:53:49;;;;;;;8.23;4.18;;;;;;;21.49;62.74;102094.91;5065464;28;20037;-72
2022/07/16 02:56:14;;;;;;;10.52;4.43;;;;;;;22.00;61.14;102104.97;5094017;28;20028;-72
2022/07/16 02:58:40;;;;;;;11.68;4.05;;;;;;;22.00;61.12;102104.13;5075671;28;20064;-71
2022/07/16 03:01:05;;;;;;;9.68;3.00;;;;;;;22.30;59.11;102104.19;5073365;28;20040;-71
2022/07/16 03:03:31;;;;;;;10.57;3.10;;;;;;;22.04;59.52;102111.56;5054753;28;20036;-72
2022/07/16 03:05:56;;;;;;;5.57;2.60;;;;;;;21.49;61.85;102117.63;5073092;28;20033;-72
2022/07/16 03:08:21;;;;;;;8.00;2.50;;;;;;;21.70;60.91;102122.09;5073402;28;20024;-73
2022/07/16 03:10:47;;;;;;;16.73;3.08;;;;;;;22.03;60.08;102118.13;5073882;28;20070;-73
2022/07/16 03:13:12;;;;;;;6.38;2.60;;;;;;;21.70;60.54;102126.72;5072797;28;20501;-73
2022/07/16 03:15:38;;;;;;;5.95;2.28;;;;;;;21.71;60.92;102117.44;5072784;28;20496;-72
2022/07/16 03:18:03;;;;;;;5.95;2.30;;;;;;;21.44;61.61;102117.63;5072289;28;20481;-73
2022/07/16 03:20:28;;;;;;;8.02;2.33;;;;;;;21.72;60.35;102124.56;5072840;28;20033;-73
2022/07/16 03:22:54;;;;;;;8.07;2.40;;;;;;;21.55;60.61;102118.47;5073063;28;20043;-73
2022/07/16 03:25:19;;;;;;;8.60;2.20;;;;;;;22.01;59.46;102124.97;5072850;28;20079;-72
2022/07/16 03:27:45;;;;;;;4.03;2.00;;;;;;;22.01;59.49;102128.53;5072471;28;20090;-74
2022/07/16 03:30:12;;;;;;;8.30;2.13;;;;;;;21.82;60.08;102139.13;5091249;28;20491;-74
2022/07/16 03:32:37;;;;;;;5.00;1.90;;;;;;;21.90;60.06;102132.31;5092486;28;20037;-76
2022/07/16 03:35:06;;;;;;;8.00;2.45;;;;;;;21.75;59.96;102144.03;5093457;28;20467;-73
2022/07/16 03:37:31;;;;;;;5.32;1.90;;;;;;;21.94;59.56;102144.38;5092494;28;20032;-73
2022/07/16 03:39:57;;;;;;;6.10;1.90;;;;;;;21.94;59.33;102143.53;5092016;28;20539;-74
2022/07/16 03:42:22;;;;;;;5.25;1.83;;;;;;;21.74;59.38;102149.72;5092220;28;20086;-76
2022/07/16 03:44:48;;;;;;;4.30;1.58;;;;;;;21.84;59.20;102150.63;5092909;28;20035;-76
2022/07/16 03:47:13;;;;;;;9.90;2.38;;;;;;;21.80;59.07;102149.53;5072919;28;20036;-75
2022/07/16 03:49:38;;;;;;;7.07;2.58;;;;;;;21.86;59.65;102155.03;5071823;28;20044;-74
2022/07/16 03:52:04;;;;;;;9.85;2.63;;;;;;;21.66;59.32;102158.47;5071940;28;20032;-74
2022/07/16 03:54:29;;;;;;;4.68;1.73;;;;;;;21.55;60.20;102163.06;5060124;28;20041;-73
2022/07/16 03:56:55;;;;;;;4.47;1.52;;;;;;;21.13;60.89;102161.47;5073803;28;20039;-73
2022/07/16 03:59:20;;;;;;;3.85;1.50;;;;;;;21.63;59.79;102170.78;5092231;28;20040;-73
2022/07/16 04:01:45;;;;;;;5.88;1.77;;;;;;;21.54;59.88;102177.03;5084322;28;20036;-73
2022/07/16 04:04:11;;;;;;;6.05;1.77;;;;;;;21.93;58.85;102174.75;5071141;28;20051;-75
2022/07/16 04:06:36;;;;;;;7.82;2.05;;;;;;;21.91;59.17;102169.56;5074859;28;20044;-75
2022/07/16 04:09:02;;;;;;;10.88;2.30;;;;;;;21.61;60.22;102183.06;5071254;28;20033;-74
2022/07/16 04:11:28;;;;;;;6.00;1.60;;;;;;;21.48;59.78;102178.09;5070815;28;20035;-74
2022/07/16 04:13:53;;;;;;;3.03;1.60;;;;;;;21.49;59.47;102180.53;5071688;28;20028;-73
2022/07/16 04:16:18;;;;;;;4.75;2.03;;;;;;;21.54;59.27;102193.44;5072263;28;20479;-75
2022/07/16 04:18:44;;;;;;;5.05;2.30;;;;;;;21.60;59.10;102197.84;5072870;28;20515;-74
2022/07/16 04:21:09;;;;;;;8.88;2.40;;;;;;;21.28;59.68;102199.81;5072634;28;20045;-74
2022/07/16 04:23:35;;;;;;;8.00;1.92;;;;;;;21.30;59.78;102195.75;5072835;28;20050;-75
2022/07/16 04:26:01;;;;;;;2.97;1.70;;;;;;;21.33;59.04;102203.41;5073494;28;20032;-74
2022/07/16 04:28:27;;;;;;;4.25;1.65;;;;;;;21.28;59.14;102208.03;5076611;28;20036;-73
2022/07/16 04:30:52;;;;;;;7.00;2.42;;;;;;;22.09;56.66;102206.59;5092572;28;20042;-75
2022/07/16 04:33:17;;;;;;;5.45;1.88;;;;;;;21.53;58.16;102203.56;5092573;28;20145;-74
2022/07/16 04:35:43;;;;;;;5.18;1.85;;;;;;;21.15;59.15;102217.50;5092295;28;20055;-76
2022/07/16 04:38:09;;;;;;;4.13;1.67;;;;;;;21.36;58.43;102213.84;5093024;28;20040;-75
2022/07/16 04:40:34;;;;;;;7.35;2.45;;;;;;;21.27;58.55;102215.41;5091533;28;20062;-75
2022/07/16 04:42:59;;;;;;;4.75;2.05;;;;;;;21.31;58.57;102213.78;5076251;28;20040;-75
2022/07/16 04:45:25;;;;;;;8.82;2.08;;;;;;;21.90;56.83;102210.88;5071668;28;20032;-75
2022/07/16 04:47:50;;;;;;;4.55;1.60;;;;;;;21.86;56.23;102212.50;5071798;28;20500;-74
2022/07/16 04:50:16;;;;;;;4.15;2.08;;;;;;;21.67;56.90;102209.38;5071391;28;20071;-76
2022/07/16 04:52:41;;;;;;;5.18;2.40;;;;;;;21.62;57.67;102210.16;5068600;28;20029;-75
2022/07/16 04:55:08;;;;;;;7.15;2.17;;;;;;;21.67;57.07;102218.41;5063663;28;20032;-75
2022/07/16 04:57:34;;;;;;;8.13;2.20;;;;;;;21.59;57.33;102216.16;5071147;28;20043;-74
2022/07/16 04:59:59;;;;;;;6.55;2.10;;;;;;;21.69;57.21;102221.69;5070985;28;20508;-74
2022/07/16 05:05:08;;;;;;;5.25;1.83;;;;;;;21.47;58.20;102220.19;5055265;28;20090;-74
2022/07/16 05:07:34;;;;;;;6.55;2.78;;;;;;;20.93;59.22;102220.28;5070321;28;20041;-74
2022/07/16 05:10:02;;;;;;;12.63;2.00;;;;;;;20.44;59.97;102226.13;5070185;28;20052;-76
2022/07/16 05:12:28;;;;;;;3.70;1.30;;;;;;;20.78;59.04;102225.63;5069985;28;20036;-76
2022/07/16 05:14:53;;;;;;;4.40;1.40;;;;;;;21.05;57.74;102227.56;5069824;28;20392;-74
2022/07/16 05:17:19;;;;;;;5.68;2.20;;;;;;;21.09;58.38;102226.75;5091215;28;20563;-76
2022/07/16 05:19:44;;;;;;;4.15;1.60;;;;;;;20.45;59.95;102225.84;5091886;28;20101;-76
2022/07/16 05:22:09;;;;;;;12.65;2.60;;;;;;;21.05;57.29;102233.00;5090972;28;20512;-74
2022/07/16 05:24:36;;;;;;;11.48;2.65;;;;;;;21.11;57.53;102234.72;5090928;28;20081;-75
2022/07/16 05:27:02;;;;;;;4.80;1.75;;;;;;;21.48;55.86;102254.66;5090823;28;20119;-76
2022/07/16 05:29:27;;;;;;;3.35;1.95;;;;;;;21.15;56.92;102246.78;5077381;28;20028;-73
2022/07/16 05:31:52;;;;;;;7.35;1.80;;;;;;;21.20;56.62;102246.78;5070642;28;20532;-74
2022/07/16 05:34:18;;;;;;;10.98;2.20;;;;;;;21.10;55.62;102247.53;5070053;28;20028;-76
2022/07/16 05:36:43;;;;;;;4.75;1.77;;;;;;;20.91;55.46;102254.47;5069819;28;20040;-74
2022/07/16 05:39:09;;;;;;;14.02;2.22;;;;;;;20.71;56.06;102255.09;5069305;28;20048;-73
2022/07/16 05:41:34;;;;;;;7.82;1.80;;;;;;;20.66;56.84;102263.22;5069662;28;20044;-74
2022/07/16 05:44:00;;;;;;;3.15;1.40;;;;;;;21.48;54.47;102262.88;5051969;28;20059;-73
2022/07/16 05:46:26;;;;;;;9.82;1.52;;;;;;;20.90;54.91;102267.28;5069894;28;20040;-73
2022/07/16 05:48:51;;;;;;;7.93;1.48;;;;;;;20.21;55.65;102276.34;5070168;28;20125;-71
2022/07/16 05:51:16;;;;;;;6.95;1.10;;;;;;;20.83;54.21;102283.06;5083519;28;20040;-74
2022/07/16 05:53:42;;;;;;;4.80;1.30;;;;;;;20.92;52.97;102270.59;5079289;28;20452;-75
2022/07/16 05:56:07;;;;;;;7.63;2.20;;;;;;;21.35;52.11;102272.34;5070336;28;20495;-75
2022/07/16 05:58:33;;;;;;;5.22;1.10;;;;;;;20.51;54.09;102275.88;5069726;28;20025;-74
2022/07/16 06:00:58;;;;;;;3.80;1.10;;;;;;;20.66;53.60;102282.34;5069812;28;20040;-74
2022/07/16 06:03:23;;;;;;;4.80;1.02;;;;;;;21.37;51.28;102280.28;5069563;28;20056;-74
2022/07/16 06:05:49;;;;;;;8.20;1.58;;;;;;;21.41;50.95;102281.41;5070246;28;20404;-75
2022/07/16 06:08:14;;;;;;;4.05;1.30;;;;;;;21.43;51.07;102287.44;5070123;28;20040;-75
2022/07/16 06:10:40;;;;;;;5.20;1.60;;;;;;;21.20;51.75;102288.66;5069119;28;20452;-76
2022/07/16 06:13:05;;;;;;;7.38;1.35;;;;;;;21.68;50.17;102304.03;5067420;28;20044;-75
2022/07/16 06:15:30;;;;;;;5.85;2.25;;;;;;;20.55;50.99;102296.97;5074148;28;20111;-72
2022/07/16 06:17:56;;;;;;;5.38;1.25;;;;;;;21.87;48.16;102299.00;5089422;28;20093;-74
2022/07/16 06:20:22;;;;;;;3.92;0.90;;;;;;;20.65;50.09;102297.09;5089884;28;20372;-75
2022/07/16 06:22:48;;;;;;;7.63;1.45;;;;;;;21.33;48.99;102310.06;5056319;28;20029;-73
2022/07/16 06:25:13;;;;;;;5.97;1.20;;;;;;;20.63;50.03;102309.34;5068602;28;20510;-75
2022/07/16 06:27:43;;;;;;;8.63;2.03;;;;;;;20.70;49.87;102312.69;5068872;28;20051;-74
2022/07/16 06:30:10;;;;;;;9.60;1.33;;;;;;;20.86;50.16;102304.41;5067285;28;20060;-73
2022/07/16 06:32:35;;;;;;;6.75;1.20;;;;;;;20.99;48.96;102314.94;5068774;28;20044;-71
2022/07/16 06:35:01;;;;;;;5.03;1.13;;;;;;;20.89;49.72;102325.75;5069491;28;20051;-74
2022/07/16 06:37:26;;;;;;;13.80;2.72;;;;;;;21.48;48.43;102315.66;5069009;28;20496;-75
2022/07/16 06:39:52;;;;;;;8.40;1.52;;;;;;;21.24;49.44;102314.38;5069607;28;20086;-77
2022/07/16 06:42:17;;;;;;;4.80;1.40;;;;;;;21.21;47.78;102323.09;5051492;28;20036;-74
2022/07/16 06:44:43;;;;;;;4.05;1.40;;;;;;;20.97;48.63;102322.56;5050434;28;20044;-75
2022/07/16 06:47:08;;;;;;;4.65;1.15;;;;;;;20.69;49.00;102332.91;5069051;28;20040;-76
2022/07/16 06:49:33;;;;;;;5.97;1.02;;;;;;;21.30;47.33;102323.44;5068387;28;20377;-73
2022/07/16 06:51:59;;;;;;;9.98;1.17;;;;;;;21.73;45.74;102334.19;5070865;28;20106;-73
2022/07/16 06:54:25;;;;;;;3.58;0.90;;;;;;;21.01;46.53;102331.13;5068302;28;20079;-73
2022/07/16 06:56:50;;;;;;;7.63;1.05;;;;;;;21.80;44.79;102335.63;5068532;28;20037;-73
2022/07/16 06:59:16;;;;;;;5.85;1.23;;;;;;;21.44;45.83;102336.44;5068171;28;20029;-74
2022/07/16 07:01:41;;;;;;;5.00;1.50;;;;;;;21.87;44.29;102338.16;5069173;28;20036;-73
2022/07/16 07:04:06;;;;;;;2.55;0.80;;;;;;;21.63;44.88;102347.78;5068622;28;20028;-74
2022/07/16 07:06:32;;;;;;;4.32;1.02;;;;;;;21.33;45.06;102351.09;5068375;28;20040;-74
2022/07/16 07:08:57;;;;;;;3.35;1.27;;;;;;;21.79;43.42;102357.78;5068268;28;20501;-74
2022/07/16 07:11:22;;;;;;;5.00;1.13;;;;;;;21.66;42.95;102348.09;5068325;28;20029;-71
2022/07/16 07:13:48;;;;;;;2.10;0.90;;;;;;;22.36;42.00;102355.97;5067296;28;20029;-73
2022/07/16 07:16:13;;;;;;;4.07;0.75;;;;;;;21.42;43.27;102365.13;5079807;28;20039;-73
2022/07/16 07:18:39;;;;;;;4.43;1.17;;;;;;;21.44;43.08;102365.69;5088948;28;20040;-71
2022/07/16 07:21:04;;;;;;;4.70;0.80;;;;;;;20.77;43.87;102359.78;5069947;28;20040;-73
2022/07/16 07:23:30;;;;;;;5.15;1.10;;;;;;;22.04;42.66;102357.97;5089014;28;20085;-75
2022/07/16 07:25:55;;;;;;;4.38;0.95;;;;;;;21.34;43.66;102360.97;5089469;28;20387;-73
2022/07/16 07:28:21;;;;;;;2.30;0.70;;;;;;;21.73;43.28;102372.50;5087097;28;20060;-74
2022/07/16 07:30:46;;;;;;;3.72;1.00;;;;;;;21.99;41.78;102379.00;5074600;28;20041;-73
2022/07/16 07:33:12;;;;;;;5.90;1.00;;;;;;;22.68;41.55;102375.84;5072368;28;20150;-75
2022/07/16 07:35:38;;;;;;;3.47;0.93;;;;;;;23.09;39.44;102374.06;5072416;28;20028;-74
2022/07/16 07:38:03;;;;;;;6.05;0.93;;;;;;;22.60;39.44;102390.06;5072530;28;20051;-74
2022/07/16 07:40:29;;;;;;;2.58;0.75;;;;;;;22.55;40.21;102384.53;5071833;28;20032;-74
2022/07/16 07:42:55;;;;;;;3.42;0.90;;;;;;;22.62;39.71;102385.13;5066192;28;20042;-74
2022/07/16 07:45:21;;;;;;;4.57;0.80;;;;;;;23.33;37.71;102388.13;5070446;28;20443;-73
2022/07/16 07:47:46;;;;;;;2.80;0.70;;;;;;;22.11;39.04;102387.84;5071970;28;20047;-74
2022/07/16 07:50:13;;;;;;;5.47;1.30;;;;;;;22.56;38.63;102385.38;5075384;28;20047;-74
2022/07/16 07:52:39;;;;;;;5.97;1.08;;;;;;;23.04;38.73;102385.00;5089285;28;20048;-74
2022/07/16 07:55:04;;;;;;;5.05;0.80;;;;;;;22.93;38.02;102394.31;5070783;28;20515;-74
2022/07/16 07:57:30;;;;;;;4.70;0.75;;;;;;;22.21;39.43;102398.88;5071034;28;20048;-76
2022/07/16 07:59:55;;;;;;;8.15;1.50;;;;;;;22.23;40.35;102393.97;5071269;28;20052;-74
2022/07/16 08:02:20;;;;;;;3.58;0.90;;;;;;;22.82;38.45;102386.31;5050505;28;20032;-75
2022/07/16 08:04:46;;;;;;;11.05;2.28;;;;;;;23.01;38.54;102396.53;5070642;28;20139;-75
2022/07/16 08:07:11;;;;;;;6.40;1.50;;;;;;;23.48;37.03;102393.59;5067958;28;20287;-73
2022/07/16 08:09:37;;;;;;;7.40;0.77;;;;;;;23.80;36.72;102393.34;5067266;28;20043;-74
2022/07/16 08:12:03;;;;;;;3.83;1.17;;;;;;;23.62;37.48;102399.38;5056955;28;20032;-72
2022/07/16 08:14:28;;;;;;;9.07;0.63;;;;;;;23.78;37.76;102407.34;5065546;28;20048;-74
2022/07/16 08:16:55;;;;;;;3.08;0.55;;;;;;;23.66;38.14;102403.22;5073941;28;20036;-72
2022/07/16 08:19:21;;;;;;;3.35;0.65;;;;;;;22.77;39.35;102410.97;5072484;28;20116;-74
2022/07/16 08:21:47;;;;;;;6.72;1.60;;;;;;;24.19;38.00;102405.41;5069583;28;20055;-74
2022/07/16 08:26:57;;;;;;;4.90;0.85;;;;;;;23.67;38.86;102411.19;5071811;28;20047;-74
2022/07/16 08:29:23;;;;;;;9.02;1.02;;;;;;;23.62;38.62;102422.16;5085849;28;20024;-74
2022/07/16 08:31:48;;;;;;;0.88;0.30;;;;;;;22.99;40.54;102422.56;5076579;28;20032;-73
2022/07/16 08:34:14;;;;;;;5.57;1.02;;;;;;;23.28;40.55;102429.22;5072941;28;20119;-72
2022/07/16 08:36:40;;;;;;;2.25;0.47;;;;;;;23.76;39.54;102422.44;5072892;28;20534;-72
2022/07/16 08:39:05;;;;;;;5.50;0.90;;;;;;;23.98;40.03;102425.75;5071062;28;20032;-74
2022/07/16 08:41:31;;;;;;;6.03;0.90;;;;;;;23.72;39.40;102432.31;5071793;28;20052;-72
2022/07/16 08:43:58;;;;;;;10.05;1.50;;;;;;;23.72;39.47;102449.63;5072377;28;20053;-72
2022/07/16 08:46:26;;;;;;;5.40;0.88;;;;;;;23.45;40.11;102438.03;5071811;28;20056;-74
2022/07/16 08:48:52;;;;;;;8.35;0.95;;;;;;;24.04;38.63;102449.34;5072366;28;20534;-73
2022/07/16 08:51:32;;;;;;;4.70;0.90;;;;;;;23.70;38.65;102453.72;5069541;28;20041;-73
2022/07/16 08:54:05;;;;;;;5.32;1.17;;;;;;;23.29;40.38;102458.31;5069299;28;20119;-73
2022/07/16 08:56:32;;;;;;;4.75;1.30;;;;;;;23.42;39.09;102452.31;5068164;28;20028;-73
2022/07/16 08:58:59;;;;;;;3.88;0.93;;;;;;;23.48;39.09;102453.97;5071144;28;20036;-73
2022/07/16 09:01:29;;;;;;;8.27;1.20;;;;;;;24.20;38.17;102449.06;5070688;28;20100;-74
2022/07/16 09:03:56;;;;;;;5.07;0.88;;;;;;;23.43;38.83;102454.78;5071134;28;20040;-73
2022/07/16 09:06:21;;;;;;;5.25;1.52;;;;;;;22.94;39.56;102460.94;5071084;28;20452;-73
2022/07/16 09:08:47;;;;;;;8.68;1.00;;;;;;;22.55;40.41;102463.16;5070178;28;20040;-72
2022/07/16 09:11:23;;;;;;;5.88;0.98;;;;;;;23.39;39.09;102470.16;5071194;28;20041;-72
2022/07/16 09:14:04;;;;;;;9.70;0.80;;;;;;;23.15;38.17;102471.72;5068017;28;20043;-74
2022/07/16 09:16:41;;;;;;;10.48;1.00;;;;;;;24.77;36.18;102469.84;5082918;28;20040;-73
2022/07/16 09:19:16;;;;;;;10.05;1.50;;;;;;;24.02;34.88;102470.78;5090891;28;20042;-75
2022/07/16 09:22:05;;;;;;;3.28;0.90;;;;;;;25.36;34.44;102475.34;5090889;28;20037;-73
2022/07/16 09:24:38;;;;;;;5.68;0.75;;;;;;;25.46;32.88;102467.88;5073211;28;20064;-75
2022/07/16 09:27:10;;;;;;;5.80;1.05;;;;;;;25.73;32.47;102467.44;5070584;28;20388;-74
2022/07/16 09:29:44;;;;;;;5.38;1.08;;;;;;;24.80;33.13;102474.81;5070172;28;20021;-73
2022/07/16 09:32:10;;;;;;;3.72;0.52;;;;;;;24.26;34.10;102493.84;5068612;28;20024;-73
2022/07/16 09:34:35;;;;;;;2.92;0.45;;;;;;;23.91;32.95;102491.91;5069385;28;20036;-73
2022/07/16 09:37:06;;;;;;;2.95;0.70;;;;;;;24.25;32.46;102495.75;5069397;28;20032;-73
2022/07/16 09:39:33;;;;;;;3.65;0.73;;;;;;;24.88;32.23;102493.47;5069563;28;20116;-74
2022/07/16 09:41:59;;;;;;;6.80;1.60;;;;;;;24.57;32.11;102497.38;5068823;28;20119;-71
2022/07/16 09:44:33;;;;;;;5.35;0.70;;;;;;;26.11;30.11;102499.63;5068807;28;20029;-74
2022/07/16 09:47:09;;;;;;;4.22;0.52;;;;;;;25.59;29.67;102491.22;5050433;28;20037;-73
2022/07/16 09:49:37;;;;;;;7.18;1.58;;;;;;;25.00;30.75;102516.78;5068225;28;20029;-75
2022/07/16 09:52:27;;;;;;;3.50;0.63;;;;;;;24.23;32.75;102508.97;5069103;28;20400;-73
2022/07/16 09:54:56;;;;;;;5.25;1.85;;;;;;;24.57;31.72;102506.44;5068157;28;20028;-73
2022/07/16 09:57:25;;;;;;;9.20;1.17;;;;;;;24.89;31.45;102500.59;5050213;28;20135;-71
2022/07/16 09:59:51;;;;;;;2.20;0.63;;;;;;;24.00;31.21;102511.44;5064377;28;20044;-73
2022/07/16 10:02:16;;;;;;;3.70;0.77;;;;;;;23.98;32.06;102514.44;5066531;28;20052;-72
2022/07/16 10:04:42;;;;;;;6.28;1.85;;;;;;;24.19;31.09;102510.63;5051034;28;20653;-75
2022/07/16 10:07:07;;;;;;;2.75;0.65;;;;;;;24.91;30.92;102501.97;5068236;28;20053;-72
2022/07/16 10:09:34;;;;;;;3.75;0.70;;;;;;;24.43;30.83;102521.88;5069462;28;20060;-74
2022/07/16 10:12:20;;;;;;;5.40;0.77;;;;;;;25.58;29.75;102519.84;5066784;28;20102;-74
2022/07/16 10:14:51;;;;;;;3.83;1.23;;;;;;;25.20;29.74;102511.22;5068073;28;20021;-73
2022/07/16 10:17:31;;;;;;;3.10;0.73;;;;;;;24.20;30.35;102526.00;5067412;28;20049;-72
2022/07/16 10:20:00;;;;;;;1.92;0.60;;;;;;;25.34;30.07;102505.06;5068433;28;20536;-73
2022/07/16 10:22:31;;;;;;;2.20;0.77;;;;;;;26.05;29.02;102509.84;5063306;28;20577;-70
2022/07/16 10:24:57;;;;;;;5.55;1.00;;;;;;;26.37;28.75;102536.06;5062081;28;20060;-69
2022/07/16 10:27:35;;;;;;;2.90;0.28;;;;;;;26.29;29.18;102520.97;5061005;28;20097;-71
2022/07/16 10:30:18;;;;;;;3.58;0.70;;;;;;;24.80;31.06;102525.13;5064383;28;20036;-72
2022/07/16 10:33:10;;;;;;;1.92;0.73;;;;;;;24.47;32.10;102533.13;5064197;28;20155;-69
2022/07/16 10:35:41;;;;;;;7.15;0.82;;;;;;;25.34;31.08;102529.84;5066508;28;20111;-70
2022/07/16 10:38:32;;;;;;;5.95;1.00;;;;;;;26.17;30.52;102526.03;5066897;28;20051;-71
2022/07/16 10:41:04;;;;;;;2.05;0.50;;;;;;;25.70;29.54;102537.66;5061593;28;20059;-71
2022/07/16 10:43:29;;;;;;;3.88;0.90;;;;;;;26.86;28.55;102534.78;5065927;28;20071;-70
2022/07/16 10:46:03;;;;;;;7.90;1.05;;;;;;;25.45;29.37;102540.59;5066372;28;20696;-71
2022/07/16 10:48:37;;;;;;;3.65;0.70;;;;;;;24.75;30.79;102536.13;5062518;28;20028;-69
2022/07/16 10:51:17;;;;;;;9.15;1.42;;;;;;;25.64;30.63;102536.06;5065494;28;20520;-70
2022/07/16 10:54:14;;;;;;;4.55;1.10;;;;;;;26.44;28.57;102533.78;5067559;28;20044;-68
2022/07/16 10:56:51;;;;;;;12.40;1.35;;;;;;;26.44;28.34;102534.63;5013368;28;20049;-70
2022/07/16 10:59:22;;;;;;;4.10;0.80;;;;;;;26.13;28.50;102548.94;5019942;28;20025;-69
2022/07/16 11:01:51;;;;;;;5.20;0.80;;;;;;;25.35;29.24;102546.09;5015322;28;20129;-70
2022/07/16 11:04:25;;;;;;;3.40;1.23;;;;;;;25.47;30.07;102560.41;5023917;28;20633;-70
2022/07/16 11:06:51;;;;;;;3.78;1.20;;;;;;;25.75;29.37;102550.59;5013666;28;20061;-69
2022/07/16 11:09:27;;;;;;;3.47;1.02;;;;;;;26.24;28.90;102550.53;5004128;28;20041;-69
2022/07/16 11:11:53;;;;;;;2.72;0.63;;;;;;;26.59;28.27;102556.56;5008489;28;20548;-68
2022/07/16 11:14:19;;;;;;;5.72;1.05;;;;;;;26.94;27.89;102555.38;5023804;28;20050;-69
2022/07/16 11:16:49;;;;;;;4.72;0.95;;;;;;;26.80;28.47;102559.94;5004288;28;20053;-70
2022/07/16 11:19:15;;;;;;;4.00;0.95;;;;;;;26.71;28.51;102556.97;5003696;28;20053;-68
2022/07/16 11:21:58;;;;;;;4.20;0.80;;;;;;;26.72;27.59;102555.88;5006960;28;20405;-66
2022/07/16 11:24:25;;;;;;;4.32;0.63;;;;;;;27.69;27.79;102557.16;5006221;28;20576;-68
2022/07/16 11:26:52;;;;;;;2.80;0.40;;;;;;;28.34;27.12;102560.06;5007411;28;20537;-70
2022/07/16 11:29:20;;;;;;;7.05;1.83;;;;;;;28.30;25.70;102559.00;5003164;28;20084;-70
2022/07/16 11:31:46;;;;;;;1.40;0.32;;;;;;;27.69;26.56;102553.59;4996843;28;20034;-70